Time;durP1;ratioP1;P1;durP2;ratioP2;P2;SDS_P1;SDS_P2;PMS_P1;PMS_P2;Temp;Humidity;BMP_temperature;BMP_pressure;BME280_temperature;BME280_humidity;BME280_pressure;Samples;Min_cycle;Max_cycle;Signal;HPM_P1;HPM_P2
2023/02/21 02:14:10;;;;;;;31.20;19.83;;;9.10;99.90;;;;;;4174380;28;20125;-80
2023/02/21 02:16:30;;;;;;;31.45;19.88;;;9.10;99.90;;;;;;4173035;28;20231;-79
2023/02/21 02:18:52;;;;;;;34.13;22.20;;;9.20;99.90;;;;;;4174928;28;20095;-79
2023/02/21 02:21:30;;;;;;;32.95;21.33;;;9.20;99.90;;;;;;4172414;28;20045;-79
2023/02/21 02:24:07;;;;;;;36.63;22.65;;;9.20;99.90;;;;;;4176030;28;20080;-79
2023/02/21 02:26:46;;;;;;;32.25;21.17;;;9.20;99.90;;;;;;4168656;28;20048;-80
2023/02/21 02:29:05;;;;;;;33.08;19.98;;;9.10;99.90;;;;;;4182909;28;20101;-80
2023/02/21 02:31:35;;;;;;;36.15;22.13;;;9.20;99.90;;;;;;4185128;28;20044;-79
2023/02/21 02:33:59;;;;;;;35.80;22.05;;;9.10;99.90;;;;;;4190286;28;20048;-79
2023/02/21 02:36:12;;;;;;;38.15;22.25;;;9.10;99.90;;;;;;4171414;28;20032;-79
2023/02/21 02:38:24;;;;;;;34.67;21.63;;;9.10;99.90;;;;;;4186306;28;20033;-79
2023/02/21 02:40:46;;;;;;;33.20;21.00;;;9.10;99.90;;;;;;4175078;28;20359;-80
2023/02/21 02:43:09;;;;;;;36.15;22.35;;;9.10;99.90;;;;;;4183584;28;20040;-80
2023/02/21 02:45:13;;;;;;;36.63;22.75;;;9.10;99.90;;;;;;4182056;28;20043;-80
2023/02/21 02:47:22;;;;;;;36.22;21.88;;;9.00;99.90;;;;;;4181575;28;20045;-79
2023/02/21 02:49:26;;;;;;;34.95;22.55;;;9.10;99.90;;;;;;4181949;28;20120;-79
2023/02/21 02:51:27;;;;;;;38.38;24.98;;;9.10;99.90;;;;;;4173699;28;20797;-79
2023/02/21 02:53:29;;;;;;;36.53;22.63;;;9.00;99.90;;;;;;4182030;28;20033;-79
2023/02/21 02:55:51;;;;;;;34.40;22.37;;;9.10;99.90;;;;;;4184769;28;20720;-80
2023/02/21 02:57:52;;;;;;;38.03;24.65;;;9.10;99.90;;;;;;4186349;28;20276;-80
2023/02/21 02:59:53;;;;;;;34.33;23.55;;;9.00;99.90;;;;;;4190231;28;20528;-80
2023/02/21 03:02:41;;;;;;;38.60;24.13;;;9.10;99.90;;;;;;4178184;28;20067;-79
2023/02/21 03:05:09;;;;;;;40.08;24.13;;;9.00;99.90;;;;;;4167410;28;20045;-80
2023/02/21 03:07:28;;;;;;;37.15;23.60;;;9.00;99.90;;;;;;4159743;28;20029;-79
2023/02/21 03:09:45;;;;;;;39.30;24.35;;;9.00;99.90;;;;;;4159818;28;20051;-79
2023/02/21 03:11:58;;;;;;;43.03;25.73;;;9.00;99.90;;;;;;4171429;28;20040;-79
2023/02/21 03:14:13;;;;;;;42.67;25.20;;;9.00;99.90;;;;;;4173777;28;20037;-80
2023/02/21 03:16:18;;;;;;;38.47;24.60;;;9.00;99.90;;;;;;4173473;28;20140;-80
2023/02/21 03:18:44;;;;;;;40.97;25.33;;;9.00;99.90;;;;;;4171015;28;20116;-80
2023/02/21 03:20:49;;;;;;;41.88;26.02;;;9.00;99.90;;;;;;4174437;28;20391;-80
2023/02/21 03:22:53;;;;;;;43.50;25.83;;;9.00;99.90;;;;;;4174962;28;20120;-80
2023/02/21 03:24:54;;;;;;;41.92;26.52;;;9.00;99.90;;;;;;4170934;28;20079;-80
2023/02/21 03:26:58;;;;;;;45.38;28.05;;;9.00;99.90;;;;;;4171335;28;20033;-79
2023/02/21 03:28:59;;;;;;;41.63;25.55;;;9.00;99.90;;;;;;4173976;28;20092;-79
2023/02/21 03:31:03;;;;;;;42.67;26.83;;;9.00;99.90;;;;;;4174617;28;20044;-80
2023/02/21 03:35:05;;;;;;;44.55;27.42;;;9.00;99.90;;;;;;4175652;28;20487;-77
2023/02/21 03:37:07;;;;;;;47.13;27.70;;;9.00;99.90;;;;;;4176883;28;20033;-79
2023/02/21 03:39:07;;;;;;;52.40;30.42;;;9.00;99.90;;;;;;4175103;28;20095;-80
2023/02/21 03:41:10;;;;;;;47.35;28.05;;;9.00;99.90;;;;;;4181209;28;20078;-79
2023/02/21 03:43:11;;;;;;;46.83;27.50;;;9.00;99.90;;;;;;4180094;28;20037;-80
2023/02/21 03:45:11;;;;;;;43.53;25.77;;;9.00;99.90;;;;;;4174983;28;20132;-80
2023/02/21 03:47:12;;;;;;;44.05;26.30;;;9.00;99.90;;;;;;4180486;28;20032;-80
2023/02/21 03:49:12;;;;;;;43.05;26.35;;;9.00;99.90;;;;;;4171245;28;20045;-79
2023/02/21 03:51:13;;;;;;;43.63;26.80;;;9.00;99.90;;;;;;4177223;28;20095;-79
2023/02/21 03:53:14;;;;;;;41.67;26.20;;;9.00;99.90;;;;;;4178990;28;20399;-79
2023/02/21 03:55:15;;;;;;;46.28;28.08;;;9.00;99.90;;;;;;4178054;28;20191;-79
2023/02/21 03:57:16;;;;;;;50.22;30.02;;;9.00;99.90;;;;;;4190113;28;20114;-80
2023/02/21 03:59:16;;;;;;;41.17;26.63;;;9.00;99.90;;;;;;4184830;28;20036;-80
2023/02/21 04:01:17;;;;;;;50.42;28.98;;;9.00;99.90;;;;;;4175761;28;20526;-80
2023/02/21 04:03:17;;;;;;;44.60;27.67;;;9.00;99.90;;;;;;4181737;28;20120;-79
2023/02/21 04:05:18;;;;;;;43.38;27.40;;;9.00;99.90;;;;;;4175166;28;20462;-79
2023/02/21 04:07:20;;;;;;;44.58;28.23;;;9.00;99.90;;;;;;4176593;28;20040;-79
2023/02/21 04:09:20;;;;;;;48.87;29.07;;;9.00;99.90;;;;;;4182880;28;20037;-80
2023/02/21 04:11:21;;;;;;;49.83;29.60;;;9.00;99.90;;;;;;4178385;28;20415;-80
2023/02/21 04:13:23;;;;;;;42.08;24.95;;;9.00;99.90;;;;;;4176240;28;20033;-80
2023/02/21 04:15:23;;;;;;;39.92;25.25;;;9.10;99.90;;;;;;4172074;28;20428;-80
2023/02/21 04:17:24;;;;;;;46.85;29.13;;;9.10;99.90;;;;;;4176375;28;20124;-80
2023/02/21 04:19:25;;;;;;;42.47;26.15;;;9.10;99.90;;;;;;4169861;28;20045;-80
2023/02/21 04:21:25;;;;;;;48.47;27.15;;;9.10;99.90;;;;;;4176201;28;20060;-79
2023/02/21 04:23:26;;;;;;;43.28;26.92;;;9.10;99.90;;;;;;4178904;28;20048;-79
2023/02/21 04:25:26;;;;;;;40.13;25.00;;;9.10;99.90;;;;;;4171202;28;20559;-80
2023/02/21 04:27:27;;;;;;;49.22;27.73;;;9.10;99.90;;;;;;4179104;28;20041;-76
2023/02/21 04:29:28;;;;;;;44.35;26.77;;;9.10;99.90;;;;;;4176184;28;20030;-79
2023/02/21 04:31:29;;;;;;;45.08;27.85;;;9.10;99.90;;;;;;4176597;28;20395;-78
2023/02/21 04:33:29;;;;;;;41.75;24.83;;;9.10;99.90;;;;;;4176714;28;20113;-80
2023/02/21 04:35:30;;;;;;;38.42;23.75;;;9.10;99.90;;;;;;4175337;28;20052;-80
2023/02/21 04:37:31;;;;;;;43.25;27.27;;;9.10;99.90;;;;;;4175645;28;20040;-79
2023/02/21 04:39:31;;;;;;;43.78;25.27;;;9.10;99.90;;;;;;4178716;28;20037;-79
2023/02/21 04:41:33;;;;;;;41.38;26.02;;;9.10;99.90;;;;;;4177612;28;20045;-79
2023/02/21 04:43:34;;;;;;;42.55;25.92;;;9.10;99.90;;;;;;4176227;28;20067;-79
2023/02/21 04:45:34;;;;;;;53.08;29.85;;;9.10;99.90;;;;;;4166226;28;20087;-73
2023/02/21 04:47:35;;;;;;;44.70;26.77;;;9.10;99.90;;;;;;4179466;28;20051;-78
2023/02/21 04:49:35;;;;;;;46.05;28.30;;;9.10;99.90;;;;;;4186633;28;20044;-79
2023/02/21 04:51:36;;;;;;;42.38;25.60;;;9.10;99.90;;;;;;4178455;28;20079;-79
2023/02/21 04:53:37;;;;;;;43.15;25.70;;;9.10;99.90;;;;;;4185455;28;20100;-79
2023/02/21 04:55:37;;;;;;;48.05;27.80;;;9.10;99.90;;;;;;4186512;28;20044;-79
2023/02/21 04:57:38;;;;;;;44.15;27.17;;;9.10;99.90;;;;;;4185091;28;20037;-80
2023/02/21 04:59:39;;;;;;;48.08;28.48;;;9.10;99.90;;;;;;4189850;28;20400;-80
2023/02/21 05:01:39;;;;;;;43.75;27.25;;;9.00;99.90;;;;;;4177082;28;20065;-79
2023/02/21 05:03:40;;;;;;;47.60;27.30;;;9.00;99.90;;;;;;4184610;28;20482;-79
2023/02/21 05:05:40;;;;;;;44.30;25.67;;;9.00;99.90;;;;;;4175160;28;20039;-80
2023/02/21 05:07:42;;;;;;;46.45;26.92;;;9.00;99.90;;;;;;4172641;28;20115;-79
2023/02/21 05:09:42;;;;;;;40.30;24.92;;;9.00;99.90;;;;;;4173981;28;20036;-79
2023/02/21 05:11:43;;;;;;;46.05;27.27;;;9.10;99.90;;;;;;4179938;28;20503;-79
2023/02/21 05:13:44;;;;;;;45.58;26.27;;;9.10;99.90;;;;;;4179769;28;20352;-79
2023/02/21 05:15:45;;;;;;;43.53;27.02;;;9.10;99.90;;;;;;4178207;28;20041;-80
2023/02/21 05:17:46;;;;;;;41.05;24.70;;;9.10;99.90;;;;;;4177668;28;20091;-80
2023/02/21 05:19:46;;;;;;;41.55;24.98;;;9.10;99.90;;;;;;4177557;28;20127;-79
2023/02/21 05:21:47;;;;;;;46.28;25.75;;;9.10;99.90;;;;;;4173798;28;20486;-80
2023/02/21 05:23:56;;;;;;;48.63;27.80;;;9.10;99.90;;;;;;4182601;28;20116;-80
2023/02/21 05:25:57;;;;;;;43.63;25.88;;;9.10;99.90;;;;;;4186017;28;20151;-80
2023/02/21 05:27:57;;;;;;;46.28;26.55;;;9.10;99.90;;;;;;4181845;28;20064;-78
2023/02/21 05:29:58;;;;;;;46.88;27.35;;;9.10;99.90;;;;;;4181041;28;20182;-78
2023/02/21 05:31:59;;;;;;;45.38;25.05;;;9.10;99.90;;;;;;4176400;28;20112;-80
2023/02/21 05:34:00;;;;;;;48.50;26.83;;;9.10;99.90;;;;;;4186005;28;20036;-79
2023/02/21 05:36:00;;;;;;;50.33;26.98;;;9.10;99.90;;;;;;4180521;28;20040;-80
2023/02/21 05:38:01;;;;;;;48.72;25.08;;;9.10;99.90;;;;;;4180724;28;20116;-79
2023/02/21 05:40:04;;;;;;;52.35;29.65;;;9.10;99.90;;;;;;4178830;28;20045;-80
2023/02/21 05:42:04;;;;;;;45.22;26.17;;;9.10;99.90;;;;;;4185428;28;20074;-80
2023/02/21 05:44:05;;;;;;;48.45;26.20;;;9.10;99.90;;;;;;4179919;28;20028;-77
2023/02/21 05:46:05;;;;;;;46.80;26.83;;;9.10;99.90;;;;;;4190314;28;20129;-79
2023/02/21 05:48:06;;;;;;;44.15;26.13;;;9.10;99.90;;;;;;4186040;28;20483;-78
2023/02/21 05:50:07;;;;;;;48.88;26.52;;;9.10;99.90;;;;;;4182911;28;20037;-79
2023/02/21 05:52:11;;;;;;;50.03;27.30;;;9.00;99.90;;;;;;4178692;28;20380;-79
2023/02/21 05:54:18;;;;;;;50.50;27.38;;;9.00;99.90;;;;;;4178013;28;20108;-79
2023/02/21 05:56:20;;;;;;;57.17;29.55;;;9.00;99.90;;;;;;4186120;28;20041;-79
2023/02/21 05:58:20;;;;;;;53.30;28.75;;;9.00;99.90;;;;;;4181513;28;20515;-80
2023/02/21 06:00:26;;;;;;;50.25;26.95;;;9.00;99.90;;;;;;4177625;28;20102;-79
2023/02/21 06:02:27;;;;;;;52.15;28.17;;;9.00;99.90;;;;;;4173947;28;20043;-79
2023/02/21 06:04:27;;;;;;;48.17;25.77;;;8.90;99.90;;;;;;4180581;28;20119;-77
2023/02/21 06:06:28;;;;;;;44.10;25.35;;;9.00;99.90;;;;;;4176626;28;20037;-79
2023/02/21 06:08:29;;;;;;;51.70;27.27;;;9.00;99.90;;;;;;4182228;28;20087;-79
2023/02/21 06:10:29;;;;;;;55.08;29.08;;;9.00;99.90;;;;;;4177084;28;20048;-79
2023/02/21 06:12:30;;;;;;;50.30;27.27;;;8.90;99.90;;;;;;4172663;28;20090;-79
2023/02/21 06:14:31;;;;;;;49.63;26.02;;;8.90;99.90;;;;;;4176350;28;20041;-79
2023/02/21 06:16:36;;;;;;;45.50;24.88;;;8.90;99.90;;;;;;4173373;28;20033;-80
2023/02/21 06:18:37;;;;;;;51.53;27.70;;;9.00;99.90;;;;;;4173620;28;20052;-79
2023/02/21 06:20:37;;;;;;;48.72;26.90;;;9.00;99.90;;;;;;4173768;28;20067;-79
2023/02/21 06:22:38;;;;;;;48.42;27.08;;;8.90;99.90;;;;;;4168437;28;20037;-80
2023/02/21 06:24:38;;;;;;;48.70;26.73;;;8.90;99.90;;;;;;4179436;28;20037;-78
2023/02/21 06:26:41;;;;;;;45.20;25.58;;;8.90;99.90;;;;;;4168699;28;20136;-80
2023/02/21 06:28:41;;;;;;;50.58;27.55;;;8.90;99.90;;;;;;4172850;28;20449;-79
2023/02/21 06:30:42;;;;;;;47.47;26.55;;;8.90;99.90;;;;;;4168934;28;20037;-79
2023/02/21 06:32:42;;;;;;;49.17;25.48;;;8.90;99.90;;;;;;4175570;28;20040;-79
2023/02/21 06:34:43;;;;;;;49.35;26.05;;;8.90;99.90;;;;;;4169620;28;20485;-79
2023/02/21 06:36:44;;;;;;;51.67;27.33;;;8.90;99.90;;;;;;4177104;28;20056;-79
2023/02/21 06:38:47;;;;;;;51.13;26.60;;;8.90;99.90;;;;;;4172626;28;20042;-79
2023/02/21 06:40:48;;;;;;;48.03;26.40;;;8.90;99.90;;;;;;4177720;28;20036;-79
2023/02/21 06:42:49;;;;;;;43.00;24.55;;;8.80;99.90;;;;;;4163893;28;20033;-79
2023/02/21 06:44:49;;;;;;;46.30;25.25;;;8.90;99.90;;;;;;4164017;28;20092;-79
2023/02/21 06:46:50;;;;;;;47.67;25.80;;;8.90;99.90;;;;;;4167236;28;20566;-79
2023/02/21 06:48:51;;;;;;;50.38;26.33;;;8.90;99.90;;;;;;4165023;28;20049;-80
2023/02/21 06:50:52;;;;;;;49.75;25.90;;;8.90;99.90;;;;;;4164895;28;20041;-79
2023/02/21 06:52:52;;;;;;;47.53;26.70;;;8.80;99.90;;;;;;4166462;28;20102;-79
2023/02/21 06:54:53;;;;;;;43.85;24.85;;;8.80;99.90;;;;;;4166661;28;20084;-79
2023/02/21 06:56:53;;;;;;;49.78;27.02;;;8.80;99.90;;;;;;4164025;28;20419;-79
2023/02/21 06:58:55;;;;;;;51.65;26.42;;;8.80;99.90;;;;;;4166270;28;20037;-79
2023/02/21 07:00:55;;;;;;;45.22;23.60;;;8.70;99.90;;;;;;4164209;28;20292;-79
2023/02/21 07:02:56;;;;;;;51.65;27.63;;;8.80;99.90;;;;;;4168206;28;20072;-79
2023/02/21 07:04:56;;;;;;;53.28;27.20;;;8.70;99.90;;;;;;4167855;28;20046;-78
2023/02/21 07:06:57;;;;;;;45.85;25.77;;;8.70;99.90;;;;;;4167058;28;20140;-79
2023/02/21 07:08:57;;;;;;;45.97;24.75;;;8.70;99.90;;;;;;4167113;28;20125;-79
2023/02/21 07:10:58;;;;;;;44.88;24.73;;;8.70;99.90;;;;;;4166356;28;20041;-75
2023/02/21 07:12:59;;;;;;;43.78;24.35;;;8.70;99.90;;;;;;4169999;28;20044;-78
2023/02/21 07:14:59;;;;;;;44.75;23.58;;;8.70;99.90;;;;;;4173476;28;20041;-80
2023/02/21 07:17:00;;;;;;;54.45;27.33;;;8.70;99.90;;;;;;4170529;28;20180;-79
2023/02/21 07:19:00;;;;;;;45.72;24.58;;;8.70;99.90;;;;;;4169461;28;20033;-79
2023/02/21 07:21:01;;;;;;;48.53;25.20;;;8.60;99.90;;;;;;4172801;28;20043;-79
2023/02/21 07:23:01;;;;;;;45.47;24.30;;;8.70;99.90;;;;;;4169702;28;20033;-79
2023/02/21 07:25:02;;;;;;;44.85;23.90;;;8.60;99.90;;;;;;4170925;28;20040;-80
2023/02/21 07:27:04;;;;;;;39.78;22.33;;;8.60;99.90;;;;;;4169533;28;20036;-79
2023/02/21 07:29:05;;;;;;;35.20;20.33;;;8.60;99.90;;;;;;4170074;28;20041;-79
2023/02/21 07:31:06;;;;;;;37.10;20.30;;;8.70;99.90;;;;;;4171863;28;20250;-79
2023/02/21 07:33:07;;;;;;;47.05;24.73;;;8.70;99.90;;;;;;4167947;28;20452;-79
2023/02/21 07:35:07;;;;;;;36.28;20.48;;;8.60;99.90;;;;;;4167400;28;20040;-78
2023/02/21 07:37:09;;;;;;;39.92;21.35;;;8.60;99.90;;;;;;4164638;28;20484;-76
2023/02/21 07:39:10;;;;;;;32.55;18.13;;;8.70;99.90;;;;;;4169120;28;20042;-78
2023/02/21 07:41:13;;;;;;;34.30;18.77;;;8.70;99.90;;;;;;4167469;28;20029;-81
2023/02/21 07:43:14;;;;;;;38.00;21.02;;;8.70;99.90;;;;;;4168045;28;20033;-78
2023/02/21 07:45:16;;;;;;;41.55;22.52;;;8.70;99.90;;;;;;4168830;28;20041;-78
2023/02/21 07:47:17;;;;;;;35.60;19.95;;;8.70;99.90;;;;;;4171297;28;20052;-79
2023/02/21 07:49:17;;;;;;;37.08;21.45;;;8.70;99.90;;;;;;4166089;28;20140;-79
2023/02/21 07:51:18;;;;;;;34.28;18.63;;;8.70;99.90;;;;;;4168373;28;20116;-79
2023/02/21 07:53:18;;;;;;;31.85;18.17;;;8.70;99.90;;;;;;4168930;28;20045;-78
2023/02/21 07:55:20;;;;;;;35.67;21.05;;;8.70;99.90;;;;;;4167405;28;20062;-75
2023/02/21 07:57:22;;;;;;;37.22;19.88;;;8.70;99.90;;;;;;4171283;28;20131;-75
2023/02/21 07:59:23;;;;;;;37.03;19.80;;;8.80;99.90;;;;;;4167967;28;20045;-75
2023/02/21 08:01:24;;;;;;;32.65;18.95;;;8.70;99.90;;;;;;4170359;28;20043;-75
2023/02/21 08:03:25;;;;;;;30.48;18.95;;;8.70;99.90;;;;;;4168631;28;20530;-75
2023/02/21 08:05:26;;;;;;;39.67;21.27;;;8.80;99.90;;;;;;4168161;28;21390;-75
2023/02/21 08:07:28;;;;;;;36.83;21.10;;;8.80;99.90;;;;;;4166072;28;20041;-75
2023/02/21 08:09:29;;;;;;;34.95;20.65;;;8.80;99.90;;;;;;4166328;28;20057;-73
2023/02/21 08:11:29;;;;;;;34.42;19.35;;;8.80;99.90;;;;;;4162669;28;20408;-74
2023/02/21 08:13:30;;;;;;;33.38;18.20;;;8.70;99.90;;;;;;4168248;28;20034;-74
2023/02/21 08:15:30;;;;;;;33.88;18.48;;;8.70;99.90;;;;;;4166892;28;20176;-74
2023/02/21 08:17:31;;;;;;;35.35;20.08;;;8.80;99.90;;;;;;4165956;28;20036;-75
2023/02/21 08:19:32;;;;;;;37.28;19.85;;;8.80;99.90;;;;;;4165130;28;20041;-75
2023/02/21 08:21:32;;;;;;;33.40;18.73;;;8.70;99.90;;;;;;4165580;28;20434;-74
2023/02/21 08:23:33;;;;;;;32.05;17.77;;;8.70;99.90;;;;;;4166958;28;20033;-75
2023/02/21 08:25:33;;;;;;;35.25;18.67;;;8.80;99.90;;;;;;4166693;28;20048;-75
2023/02/21 08:27:34;;;;;;;32.47;19.10;;;8.70;99.90;;;;;;4168595;28;20026;-75
2023/02/21 08:29:34;;;;;;;33.03;19.25;;;8.70;99.90;;;;;;4169710;28;20047;-75
2023/02/21 08:31:36;;;;;;;32.22;17.92;;;8.70;99.90;;;;;;4167166;28;20103;-75
2023/02/21 08:33:37;;;;;;;32.50;18.93;;;8.70;99.90;;;;;;4167409;28;20117;-75
2023/02/21 08:35:37;;;;;;;31.80;17.77;;;8.70;99.90;;;;;;4164877;28;20053;-75
2023/02/21 08:37:44;;;;;;;32.38;19.17;;;8.70;99.90;;;;;;4169907;28;20033;-75
2023/02/21 08:39:51;;;;;;;35.08;20.50;;;8.70;99.90;;;;;;4168460;28;20511;-74
2023/02/21 08:41:52;;;;;;;30.15;17.95;;;8.60;99.90;;;;;;4167932;28;20573;-75
2023/02/21 08:43:53;;;;;;;28.52;17.63;;;8.60;99.90;;;;;;4169887;28;20095;-75
2023/02/21 08:45:53;;;;;;;28.73;16.55;;;8.70;99.90;;;;;;4163696;28;20122;-74
2023/02/21 08:47:54;;;;;;;29.65;17.90;;;8.70;99.90;;;;;;4167258;28;20037;-75
2023/02/21 08:49:54;;;;;;;33.45;18.52;;;8.70;99.90;;;;;;4168883;28;20045;-75
2023/02/21 08:51:55;;;;;;;30.75;18.00;;;8.70;99.90;;;;;;4171079;28;20108;-75
2023/02/21 08:53:56;;;;;;;34.17;18.80;;;8.70;99.90;;;;;;4168954;28;20120;-75
2023/02/21 08:55:57;;;;;;;30.33;17.63;;;8.60;99.90;;;;;;4166763;28;20036;-75
2023/02/21 08:57:57;;;;;;;34.35;18.70;;;8.70;99.90;;;;;;4169526;28;20448;-75
2023/02/21 08:59:58;;;;;;;39.90;18.42;;;8.60;99.90;;;;;;4169364;28;20041;-75
2023/02/21 09:02:00;;;;;;;35.08;17.63;;;8.60;99.90;;;;;;4171476;28;20031;-75
2023/02/21 09:04:02;;;;;;;29.80;17.43;;;8.60;99.90;;;;;;4165890;28;20163;-75
2023/02/21 09:06:03;;;;;;;25.92;15.85;;;8.70;99.90;;;;;;4167158;28;20037;-75
2023/02/21 09:08:04;;;;;;;28.58;16.67;;;8.70;99.90;;;;;;4168818;28;20488;-74
2023/02/21 09:10:06;;;;;;;26.27;16.58;;;8.70;99.90;;;;;;4165042;28;21022;-75
2023/02/21 09:12:07;;;;;;;29.48;17.58;;;8.70;99.90;;;;;;4169557;28;20040;-75
2023/02/21 09:14:07;;;;;;;26.38;15.50;;;8.70;99.90;;;;;;4173157;28;20036;-75
2023/02/21 09:16:08;;;;;;;26.92;16.02;;;8.70;99.90;;;;;;4168782;28;20030;-75
2023/02/21 09:18:10;;;;;;;26.70;15.75;;;8.70;99.90;;;;;;4168007;28;20045;-75
2023/02/21 09:20:16;;;;;;;27.10;16.23;;;8.70;99.90;;;;;;4167242;28;20082;-75
2023/02/21 09:22:17;;;;;;;26.77;15.32;;;8.70;99.90;;;;;;4170045;28;20032;-74
2023/02/21 09:24:17;;;;;;;26.65;15.55;;;8.70;99.90;;;;;;4170356;28;20665;-75
2023/02/21 09:26:18;;;;;;;29.23;16.02;;;8.70;99.90;;;;;;4166776;28;20047;-75
2023/02/21 09:28:19;;;;;;;26.45;14.82;;;8.70;99.90;;;;;;4165975;28;20492;-74
2023/02/21 09:30:23;;;;;;;20.42;12.73;;;8.70;99.90;;;;;;4168143;28;20396;-74
2023/02/21 09:32:23;;;;;;;22.65;13.65;;;8.70;99.90;;;;;;4168325;28;20086;-75
2023/02/21 09:34:24;;;;;;;21.33;12.48;;;8.80;99.90;;;;;;4168780;28;20163;-75
2023/02/21 09:36:24;;;;;;;26.35;14.05;;;8.80;99.90;;;;;;4165677;28;20029;-75
2023/02/21 09:38:25;;;;;;;34.45;17.77;;;8.80;99.90;;;;;;4167168;28;20102;-75
2023/02/21 09:40:35;;;;;;;29.70;17.02;;;8.80;99.90;;;;;;4167105;28;20102;-75
2023/02/21 09:42:35;;;;;;;30.55;17.70;;;8.80;99.90;;;;;;4166927;28;20081;-75
2023/02/21 09:44:36;;;;;;;28.45;15.20;;;8.80;99.90;;;;;;4167401;28;20040;-74
2023/02/21 09:46:40;;;;;;;25.65;14.80;;;8.80;99.90;;;;;;4165470;28;20040;-75
2023/02/21 09:48:43;;;;;;;22.92;13.35;;;8.80;99.90;;;;;;4167938;28;20626;-75
2023/02/21 09:50:46;;;;;;;21.52;13.25;;;8.80;99.90;;;;;;4167907;28;20107;-75
2023/02/21 09:52:47;;;;;;;22.00;12.98;;;8.80;99.90;;;;;;4169675;28;20677;-75
2023/02/21 09:54:56;;;;;;;21.58;12.77;;;8.90;99.90;;;;;;4164566;28;20072;-75
2023/02/21 09:57:01;;;;;;;21.08;13.20;;;8.90;99.90;;;;;;4167356;28;20465;-75
2023/02/21 09:59:02;;;;;;;20.85;12.50;;;8.80;99.90;;;;;;4165699;28;20045;-74
2023/02/21 10:01:12;;;;;;;22.50;13.55;;;8.80;99.90;;;;;;4168195;28;20037;-75
2023/02/21 10:03:16;;;;;;;25.00;14.25;;;8.80;99.90;;;;;;4170429;28;20037;-74
2023/02/21 10:05:41;;;;;;;18.85;11.90;;;8.80;99.90;;;;;;4167486;28;20056;-75
2023/02/21 10:08:06;;;;;;;20.40;11.88;;;8.80;99.90;;;;;;4149863;28;20030;-74
2023/02/21 10:10:31;;;;;;;18.35;10.90;;;8.80;99.90;;;;;;4169664;28;20052;-74
2023/02/21 10:12:43;;;;;;;21.13;12.23;;;8.80;99.90;;;;;;4170279;28;20493;-75
2023/02/21 10:15:02;;;;;;;18.05;10.95;;;8.90;99.90;;;;;;4169931;28;20045;-75
2023/02/21 10:17:10;;;;;;;19.30;12.55;;;8.90;99.90;;;;;;4164419;28;20064;-74
2023/02/21 10:19:18;;;;;;;22.58;12.80;;;9.00;99.90;;;;;;4165579;28;20065;-73
2023/02/21 10:21:28;;;;;;;19.25;11.32;;;8.90;99.90;;;;;;4164555;28;20068;-74
2023/02/21 10:23:47;;;;;;;20.20;11.95;;;9.00;99.90;;;;;;4167459;28;20041;-71
2023/02/21 10:25:48;;;;;;;18.85;11.70;;;9.00;99.90;;;;;;4166180;28;20098;-74
2023/02/21 10:27:52;;;;;;;21.90;13.77;;;9.00;99.90;;;;;;4169142;28;20048;-75
2023/02/21 10:30:04;;;;;;;19.95;12.45;;;9.00;99.90;;;;;;4169459;28;20120;-75
2023/02/21 10:32:05;;;;;;;16.87;11.20;;;9.00;99.90;;;;;;4167516;28;20055;-75
2023/02/21 10:34:21;;;;;;;18.48;11.52;;;9.00;99.90;;;;;;4166028;28;20503;-75
2023/02/21 10:36:22;;;;;;;19.85;11.77;;;9.00;99.90;;;;;;4165310;28;20099;-75
2023/02/21 10:38:25;;;;;;;16.98;10.82;;;9.10;99.90;;;;;;4167381;28;20889;-75
2023/02/21 10:40:45;;;;;;;18.98;11.48;;;9.10;99.90;;;;;;4169683;28;20044;-75
2023/02/21 10:42:53;;;;;;;12.98;9.30;;;9.10;99.90;;;;;;4164822;28;20041;-75
2023/02/21 10:44:56;;;;;;;18.35;10.93;;;9.10;99.90;;;;;;4166437;28;20037;-75
2023/02/21 10:47:01;;;;;;;16.08;9.93;;;9.10;99.90;;;;;;4167107;28;20037;-75
2023/02/21 10:49:22;;;;;;;19.67;10.93;;;9.20;99.90;;;;;;4166685;28;20567;-75
2023/02/21 10:51:33;;;;;;;15.13;9.70;;;9.10;99.90;;;;;;4167726;28;20052;-75
2023/02/21 10:53:45;;;;;;;17.60;11.55;;;9.20;99.90;;;;;;4163591;28;20523;-75
2023/02/21 10:56:06;;;;;;;15.60;9.10;;;9.20;99.90;;;;;;4170867;28;20045;-75
2023/02/21 10:58:10;;;;;;;16.90;10.90;;;9.20;99.90;;;;;;4162591;28;20044;-75
2023/02/21 11:00:35;;;;;;;15.75;10.10;;;9.20;99.90;;;;;;4164583;28;20067;-74
2023/02/21 11:02:43;;;;;;;16.05;9.45;;;9.20;99.90;;;;;;4165363;28;20037;-75
2023/02/21 11:04:44;;;;;;;18.55;10.02;;;9.20;99.90;;;;;;4165384;28;20025;-75
2023/02/21 11:06:48;;;;;;;16.65;10.02;;;9.10;99.90;;;;;;4164019;28;20068;-75
2023/02/21 11:08:49;;;;;;;17.38;11.05;;;9.20;99.90;;;;;;4168743;28;20408;-75
2023/02/21 11:10:53;;;;;;;14.38;9.60;;;9.20;99.90;;;;;;4167615;28;20041;-75
2023/02/21 11:13:04;;;;;;;15.82;8.98;;;9.20;99.90;;;;;;4164557;28;20065;-75
2023/02/21 11:15:17;;;;;;;13.57;8.57;;;9.20;99.90;;;;;;4167848;28;20036;-75
2023/02/21 11:17:20;;;;;;;13.52;8.77;;;9.20;99.90;;;;;;4169552;28;20847;-75
2023/02/21 11:19:20;;;;;;;15.63;9.43;;;9.20;99.90;;;;;;4167228;28;20601;-75
2023/02/21 11:21:21;;;;;;;15.25;9.02;;;9.30;99.90;;;;;;4169237;28;20036;-76
2023/02/21 11:23:30;;;;;;;14.18;8.68;;;9.30;99.90;;;;;;4168256;28;20107;-75
2023/02/21 11:25:37;;;;;;;16.90;9.07;;;9.40;99.90;;;;;;4168635;28;20057;-74
2023/02/21 11:27:38;;;;;;;14.73;9.73;;;9.40;99.90;;;;;;4165516;28;20033;-75
2023/02/21 11:29:43;;;;;;;12.80;8.45;;;9.40;99.90;;;;;;4168376;28;20198;-75
2023/02/21 11:31:44;;;;;;;11.57;7.47;;;9.50;99.90;;;;;;4163287;28;20079;-74
2023/02/21 11:34:05;;;;;;;14.50;8.43;;;9.50;99.90;;;;;;4167603;28;20041;-75
2023/02/21 11:36:15;;;;;;;13.82;8.57;;;9.60;99.90;;;;;;4166603;28;20060;-76
2023/02/21 11:38:42;;;;;;;13.40;8.02;;;9.60;99.90;;;;;;4167461;28;20033;-75
2023/02/21 11:40:46;;;;;;;12.80;8.05;;;9.60;99.90;;;;;;4167161;28;20475;-74
2023/02/21 11:42:46;;;;;;;13.48;7.90;;;9.60;99.90;;;;;;4169899;28;20068;-74
2023/02/21 11:45:00;;;;;;;11.40;7.60;;;9.70;99.90;;;;;;4166738;28;20379;-74
2023/02/21 11:47:46;;;;;;;12.75;7.95;;;9.70;99.90;;;;;;4163545;28;20357;-76
2023/02/21 11:50:11;;;;;;;11.85;7.13;;;9.70;99.90;;;;;;4142693;28;20045;-75
2023/02/21 11:52:16;;;;;;;9.98;6.30;;;9.60;99.90;;;;;;4172852;28;20025;-75
2023/02/21 11:54:22;;;;;;;9.60;6.55;;;9.70;99.90;;;;;;4170518;28;20025;-75
2023/02/21 11:56:28;;;;;;;8.48;5.70;;;9.70;99.90;;;;;;4166000;28;20045;-75
2023/02/21 11:58:39;;;;;;;9.05;6.18;;;9.70;99.90;;;;;;4169513;28;20554;-75
2023/02/21 12:01:01;;;;;;;9.07;6.07;;;9.60;99.90;;;;;;4169411;28;20087;-74
2023/02/21 12:03:28;;;;;;;8.02;5.30;;;9.60;99.90;;;;;;4172375;28;20044;-74
2023/02/21 12:05:34;;;;;;;8.27;5.18;;;9.60;99.90;;;;;;4167528;28;20292;-75
2023/02/21 12:07:45;;;;;;;8.02;5.53;;;9.70;99.90;;;;;;4168617;28;20033;-75
2023/02/21 12:10:17;;;;;;;8.25;5.53;;;9.70;99.90;;;;;;4167201;28;20116;-74
2023/02/21 12:12:37;;;;;;;8.32;4.93;;;9.70;99.90;;;;;;4173332;28;20110;-74
2023/02/21 12:15:02;;;;;;;8.00;5.40;;;9.70;99.90;;;;;;4170838;28;20033;-74
2023/02/21 12:17:25;;;;;;;6.75;4.65;;;9.80;99.90;;;;;;4166664;28;20179;-75
2023/02/21 12:19:35;;;;;;;7.47;4.97;;;9.80;99.90;;;;;;4169190;28;20394;-75
2023/02/21 12:21:59;;;;;;;6.53;4.43;;;9.70;99.90;;;;;;4171279;28;20048;-75
2023/02/21 12:24:16;;;;;;;8.50;5.32;;;9.80;99.90;;;;;;4170486;28;20037;-72
2023/02/21 12:26:46;;;;;;;10.32;6.25;;;9.70;99.90;;;;;;4168496;28;20049;-75
2023/02/21 12:29:24;;;;;;;9.02;6.28;;;9.80;99.90;;;;;;4168467;28;20084;-74
2023/02/21 12:32:06;;;;;;;9.82;6.10;;;9.80;99.90;;;;;;4168913;28;20117;-75
2023/02/21 12:34:37;;;;;;;8.73;5.88;;;9.80;99.90;;;;;;4167381;28;20475;-75
2023/02/21 12:37:05;;;;;;;9.52;6.28;;;9.80;99.90;;;;;;4166846;28;20040;-74
2023/02/21 12:39:15;;;;;;;10.45;6.95;;;9.80;99.90;;;;;;4168282;28;20036;-75
2023/02/21 12:41:45;;;;;;;10.00;6.35;;;9.80;99.90;;;;;;4171943;28;20041;-74
2023/02/21 12:43:58;;;;;;;10.07;6.43;;;9.80;99.90;;;;;;4167632;28;20025;-74
2023/02/21 12:46:52;;;;;;;8.75;6.28;;;9.80;99.90;;;;;;4170881;28;20056;-75
2023/02/21 12:49:23;;;;;;;9.85;6.65;;;9.80;99.90;;;;;;4074375;29;20503;-75
2023/02/21 12:51:32;;;;;;;9.93;6.20;;;9.80;99.90;;;;;;4147313;28;20037;-75
2023/02/21 12:53:53;;;;;;;13.18;7.20;;;9.80;99.90;;;;;;4170347;28;20090;-75
2023/02/21 12:56:16;;;;;;;10.48;6.63;;;9.90;99.90;;;;;;4166146;28;20061;-75
2023/02/21 12:58:36;;;;;;;14.32;7.18;;;9.90;99.90;;;;;;4166505;28;20243;-75
2023/02/21 13:00:52;;;;;;;10.00;6.85;;;9.80;99.90;;;;;;4166497;28;20044;-75
2023/02/21 13:03:09;;;;;;;10.27;6.07;;;9.90;99.90;;;;;;4168775;28;20045;-75
2023/02/21 13:05:16;;;;;;;10.45;6.22;;;9.90;99.90;;;;;;4173722;28;20364;-75